createdAt,value
2023-05-24T00:01:57.134Z,3.25
2023-05-24T00:04:25.587Z,3.30
2023-05-24T00:06:55.160Z,3.20
2023-05-24T00:09:22.005Z,2.92
2023-05-24T00:14:15.931Z,2.90
2023-05-24T00:19:11.562Z,2.72
2023-05-24T00:21:38.590Z,3.53
2023-05-24T00:24:05.420Z,3.35
2023-05-24T00:26:34.333Z,2.60
2023-05-24T00:29:00.965Z,2.78
2023-05-24T00:31:27.570Z,3.70
2023-05-24T00:33:54.192Z,2.83
2023-05-24T00:36:21.106Z,3.45
2023-05-24T00:41:14.656Z,3.05
2023-05-24T00:43:43.425Z,3.10
2023-05-24T00:46:15.724Z,3.13
2023-05-24T00:48:43.497Z,4.65
2023-05-24T00:51:12.407Z,2.90
2023-05-24T00:53:41.542Z,3.03
2023-05-24T00:56:08.754Z,3.45
2023-05-24T00:58:35.673Z,3.10
2023-05-24T01:03:30.210Z,2.83
2023-05-24T01:06:01.758Z,3.28
2023-05-24T01:08:35.684Z,3.35
2023-05-24T01:11:30.336Z,3.55
2023-05-24T01:14:21.500Z,3.97
2023-05-24T01:16:56.606Z,3.10
2023-05-24T01:19:35.527Z,3.80
2023-05-24T01:22:30.082Z,3.25
2023-05-24T01:25:42.031Z,2.60
2023-05-24T01:28:10.608Z,3.83
2023-05-24T01:30:37.353Z,3.30
2023-05-24T01:33:05.697Z,3.10
2023-05-24T01:35:32.357Z,3.13
2023-05-24T01:37:58.950Z,3.40
2023-05-24T01:40:25.978Z,3.33
2023-05-24T01:42:58.112Z,3.65
2023-05-24T01:45:48.749Z,3.85
2023-05-24T01:48:49.338Z,3.20
2023-05-24T01:51:19.667Z,2.78
2023-05-24T01:53:49.100Z,3.25
2023-05-24T01:56:17.283Z,4.40
2023-05-24T01:58:45.736Z,3.30
2023-05-24T02:01:13.665Z,3.58
2023-05-24T02:03:43.395Z,3.60
2023-05-24T02:06:10.958Z,3.60
2023-05-24T02:08:37.704Z,3.80
2023-05-24T02:11:04.461Z,3.50
2023-05-24T02:13:31.055Z,3.45
2023-05-24T02:15:57.689Z,3.25
2023-05-24T02:18:24.348Z,4.35
2023-05-24T02:20:51.538Z,3.50
2023-05-24T02:23:18.198Z,3.80
2023-05-24T02:25:44.890Z,2.97
2023-05-24T02:28:11.542Z,3.00
2023-05-24T02:30:39.882Z,3.00
2023-05-24T02:33:06.824Z,3.30
2023-05-24T02:35:36.603Z,3.22
2023-05-24T02:38:06.844Z,2.75
2023-05-24T02:40:33.785Z,3.97
2023-05-24T02:43:00.337Z,3.08
2023-05-24T02:45:27.005Z,2.95
2023-05-24T02:47:53.659Z,3.22
2023-05-24T02:50:20.286Z,3.80
2023-05-24T02:52:46.915Z,3.95
2023-05-24T02:55:13.555Z,3.20
2023-05-24T02:57:41.818Z,3.20
2023-05-24T03:00:09.889Z,3.15
2023-05-24T03:02:38.820Z,3.05
2023-05-24T03:05:06.147Z,2.67
2023-05-24T03:07:32.816Z,3.10
2023-05-24T03:09:59.528Z,3.95
2023-05-24T03:12:26.472Z,3.28
2023-05-24T03:17:19.604Z,3.17
2023-05-24T03:19:46.213Z,3.58
2023-05-24T03:22:12.866Z,3.40
2023-05-24T03:24:40.334Z,3.13
2023-05-24T03:27:07.189Z,3.50
2023-05-24T03:29:33.844Z,3.50
2023-05-24T03:32:00.681Z,3.33
2023-05-24T03:34:27.380Z,3.35
2023-05-24T03:36:53.967Z,3.40
2023-05-24T03:39:20.604Z,3.45
2023-05-24T03:41:47.208Z,3.50
2023-05-24T03:44:13.856Z,3.33
2023-05-24T03:46:40.884Z,3.33
2023-05-24T03:49:09.131Z,3.17
2023-05-24T03:51:36.354Z,4.13
2023-05-24T03:54:03.289Z,3.08
2023-05-24T03:56:30.133Z,3.65
2023-05-24T03:59:00.777Z,3.22
2023-05-24T04:01:34.188Z,3.30
2023-05-24T04:04:02.298Z,2.90
2023-05-24T04:06:30.196Z,3.75
2023-05-24T04:08:58.834Z,3.92
2023-05-24T04:11:28.620Z,3.60
2023-05-24T04:13:56.238Z,3.90
2023-05-24T04:16:27.607Z,3.22
2023-05-24T04:18:57.982Z,3.92
2023-05-24T04:21:24.802Z,3.17
2023-05-24T04:23:51.424Z,3.42
2023-05-24T04:26:18.573Z,3.65
2023-05-24T04:28:48.797Z,3.95
2023-05-24T04:31:16.693Z,3.75
2023-05-24T04:33:43.632Z,3.40
2023-05-24T04:36:11.848Z,3.78
2023-05-24T04:38:39.446Z,3.97
2023-05-24T04:41:06.015Z,3.53
2023-05-24T04:43:34.855Z,3.30
2023-05-24T04:46:03.067Z,3.50
2023-05-24T04:48:29.871Z,3.17
2023-05-24T04:51:00.917Z,3.75
2023-05-24T04:53:30.321Z,3.35
2023-05-24T04:55:56.882Z,3.90
2023-05-24T04:58:23.580Z,3.42
2023-05-24T05:00:50.273Z,3.50
2023-05-24T05:03:17.165Z,3.67
2023-05-24T05:05:44.679Z,3.30
2023-05-24T05:08:11.367Z,3.70
2023-05-24T05:10:37.971Z,3.45
2023-05-24T05:13:04.808Z,4.70
2023-05-24T05:15:31.490Z,4.57
2023-05-24T05:17:58.164Z,5.53
2023-05-24T05:20:25.569Z,3.83
2023-05-24T05:22:52.228Z,4.25
2023-05-24T05:25:20.387Z,4.03
2023-05-24T05:27:47.093Z,4.55
2023-05-24T05:30:14.074Z,4.53
2023-05-24T05:32:40.999Z,3.97
2023-05-24T05:35:08.304Z,3.67
2023-05-24T05:37:42.892Z,3.88
2023-05-24T05:40:09.981Z,4.72
2023-05-24T05:42:39.320Z,3.92
2023-05-24T05:45:06.635Z,4.45
2023-05-24T05:47:33.360Z,4.10
2023-05-24T05:50:00.199Z,4.55
2023-05-24T05:54:54.634Z,4.40
2023-05-24T05:57:24.622Z,4.65
2023-05-24T05:59:51.629Z,4.65
2023-05-24T06:02:24.873Z,5.32
2023-05-24T06:04:51.855Z,4.63
2023-05-24T06:07:25.927Z,4.70
2023-05-24T06:09:52.567Z,4.05
2023-05-24T06:12:20.659Z,5.20
2023-05-24T06:14:50.753Z,4.95
2023-05-24T06:17:17.482Z,4.03
2023-05-24T06:19:44.195Z,4.63
2023-05-24T06:27:05.705Z,4.45
2023-05-24T06:29:32.415Z,4.28
2023-05-24T06:34:25.852Z,5.40
2023-05-24T06:36:53.137Z,4.45
2023-05-24T06:39:19.987Z,5.07
2023-05-24T06:41:47.483Z,4.95
2023-05-24T06:44:14.294Z,5.22
2023-05-24T06:49:07.866Z,5.38
2023-05-24T06:56:29.141Z,5.47
2023-05-24T06:58:56.510Z,5.95
2023-05-24T07:01:23.509Z,5.68
2023-05-24T07:03:50.299Z,5.13
2023-05-24T07:08:44.030Z,4.65
2023-05-24T07:13:38.981Z,4.72
2023-05-24T07:16:06.694Z,4.95
2023-05-24T07:18:33.410Z,4.43
2023-05-24T07:23:31.400Z,4.57
2023-05-24T07:25:58.065Z,5.53
2023-05-24T07:28:24.838Z,4.05
2023-05-24T07:33:19.019Z,4.25
2023-05-24T07:35:51.901Z,4.45
2023-05-24T07:38:21.657Z,4.85
2023-05-24T07:40:49.336Z,3.78
2023-05-24T07:43:16.097Z,4.30
2023-05-24T07:48:11.165Z,4.13
2023-05-24T07:50:39.124Z,4.68
2023-05-24T07:53:06.524Z,4.55
2023-05-24T07:55:34.802Z,4.40
2023-05-24T07:58:01.671Z,4.50
2023-05-24T08:00:28.443Z,4.65
2023-05-24T08:02:55.185Z,4.00
2023-05-24T08:05:22.396Z,4.05
2023-05-24T08:07:50.401Z,4.65
2023-05-24T08:10:17.378Z,3.45
2023-05-24T08:12:45.596Z,4.22
2023-05-24T08:15:12.512Z,4.15
2023-05-24T08:17:39.806Z,3.17
2023-05-24T08:20:09.127Z,3.38
2023-05-24T08:22:37.416Z,5.47
2023-05-24T08:25:04.460Z,4.40
2023-05-24T08:27:31.410Z,4.68
2023-05-24T08:29:58.104Z,4.13
2023-05-24T08:32:25.059Z,4.72
2023-05-24T08:34:57.775Z,3.90
2023-05-24T08:37:28.513Z,4.13
2023-05-24T08:39:55.221Z,4.13
2023-05-24T08:42:23.091Z,4.90
2023-05-24T08:44:58.836Z,4.55
2023-05-24T08:47:27.069Z,4.72
2023-05-24T08:49:53.966Z,4.60
2023-05-24T08:52:22.541Z,4.28
2023-05-24T08:54:50.282Z,5.57
2023-05-24T08:57:18.208Z,4.40
2023-05-24T08:59:44.894Z,4.40
2023-05-24T09:02:14.824Z,5.15
2023-05-24T09:04:44.470Z,4.47
2023-05-24T09:07:14.030Z,5.63
2023-05-24T09:09:48.145Z,4.47
2023-05-24T09:12:35.609Z,4.53
2023-05-24T09:15:07.206Z,4.35
2023-05-24T09:17:38.285Z,5.72
2023-05-24T09:20:09.283Z,4.70
2023-05-24T09:22:40.792Z,4.47
2023-05-24T09:25:10.003Z,4.78
2023-05-24T09:27:37.721Z,4.65
2023-05-24T09:30:12.933Z,5.30
2023-05-24T09:32:39.891Z,5.45
2023-05-24T09:35:10.918Z,6.72
2023-05-24T09:37:39.176Z,5.53
2023-05-24T09:40:07.397Z,5.68
2023-05-24T09:42:34.247Z,7.07
2023-05-24T09:45:07.019Z,6.93
2023-05-24T09:47:35.191Z,5.72
2023-05-24T09:50:03.674Z,5.55
2023-05-24T09:52:31.721Z,7.50
2023-05-24T09:55:00.417Z,6.20
2023-05-24T09:57:28.361Z,6.53
2023-05-24T09:59:55.095Z,6.80
2023-05-24T10:02:24.005Z,5.63
2023-05-24T10:05:00.252Z,6.32
2023-05-24T10:07:27.353Z,7.50
2023-05-24T10:09:54.351Z,7.38
2023-05-24T10:12:23.432Z,7.20
2023-05-24T10:14:52.150Z,7.40
2023-05-24T10:17:19.775Z,7.78
2023-05-24T10:19:46.553Z,7.28
2023-05-24T10:22:15.968Z,7.43
2023-05-24T10:24:47.854Z,7.60
2023-05-24T10:27:19.649Z,7.35
2023-05-24T10:30:01.561Z,8.77
2023-05-24T10:32:32.413Z,8.95
2023-05-24T10:35:00.715Z,9.30
2023-05-24T10:37:27.455Z,9.75
2023-05-24T10:39:54.393Z,10.80
2023-05-24T10:42:21.545Z,8.70
2023-05-24T10:44:48.186Z,10.23
2023-05-24T10:47:17.118Z,9.85
2023-05-24T10:49:52.505Z,9.82
2023-05-24T10:52:19.729Z,8.32
2023-05-24T10:55:05.707Z,9.23
2023-05-24T10:57:33.177Z,10.25
2023-05-24T11:00:35.402Z,9.52
2023-05-24T11:03:06.936Z,9.13
2023-05-24T11:05:51.964Z,8.98
2023-05-24T11:08:45.226Z,9.27
2023-05-24T11:11:25.831Z,8.25
2023-05-24T11:13:58.083Z,6.57
2023-05-24T11:16:39.600Z,8.00
2023-05-24T11:19:16.555Z,9.27
2023-05-24T11:21:46.270Z,8.75
2023-05-24T11:24:13.493Z,7.80
2023-05-24T11:26:41.323Z,8.32
2023-05-24T11:29:08.153Z,8.02
2023-05-24T11:31:37.912Z,7.43
2023-05-24T11:34:13.089Z,7.93
2023-05-24T11:36:42.403Z,7.30
2023-05-24T11:39:09.768Z,8.13
2023-05-24T11:41:38.951Z,8.15
2023-05-24T11:44:12.356Z,7.93
2023-05-24T11:46:40.600Z,6.82
2023-05-24T11:49:07.536Z,6.15
2023-05-24T11:51:36.104Z,6.65
2023-05-24T11:54:02.776Z,7.57
2023-05-24T11:56:38.629Z,7.22
2023-05-24T11:59:12.438Z,5.65
2023-05-24T12:01:39.141Z,5.88
2023-05-24T12:04:12.273Z,5.35
2023-05-24T12:06:44.007Z,5.22
2023-05-24T12:09:16.697Z,5.43
2023-05-24T12:11:47.553Z,5.22
2023-05-24T12:14:17.300Z,5.78
2023-05-24T12:16:49.343Z,6.50
2023-05-24T12:21:59.489Z,6.15
2023-05-24T12:24:27.316Z,5.97
2023-05-24T12:27:08.999Z,6.22
2023-05-24T12:29:41.159Z,7.07
2023-05-24T12:32:13.678Z,6.00
2023-05-24T12:34:42.612Z,5.90
2023-05-24T12:37:10.402Z,5.78
2023-05-24T12:39:37.927Z,5.60
2023-05-24T12:42:06.314Z,5.20
2023-05-24T12:44:37.080Z,5.07
2023-05-24T12:47:08.646Z,6.40
2023-05-24T12:49:35.962Z,5.88
2023-05-24T12:52:02.864Z,6.40
2023-05-24T12:54:30.156Z,6.47
2023-05-24T12:57:00.395Z,5.68
2023-05-24T12:59:28.947Z,5.65
2023-05-24T13:01:58.181Z,5.50
2023-05-24T13:04:27.736Z,5.57
2023-05-24T13:06:54.988Z,5.75
2023-05-24T13:09:23.738Z,6.18
2023-05-24T13:11:51.076Z,4.95
2023-05-24T13:14:18.465Z,4.78
2023-05-24T13:16:45.426Z,5.95
2023-05-24T13:19:13.631Z,5.07
2023-05-24T13:21:40.767Z,4.80
2023-05-24T13:24:07.902Z,4.60
2023-05-24T13:26:38.205Z,5.72
2023-05-24T13:31:41.134Z,4.35
2023-05-24T13:34:10.966Z,5.25
2023-05-24T13:36:38.382Z,4.72
2023-05-24T13:39:15.565Z,4.55
2023-05-24T13:41:44.631Z,5.30
2023-05-24T13:44:12.567Z,7.13
2023-05-24T13:46:41.150Z,5.32
2023-05-24T13:49:09.488Z,6.35
2023-05-24T13:51:36.907Z,5.70
2023-05-24T13:54:07.414Z,5.38
2023-05-24T13:56:36.767Z,6.28
2023-05-24T13:59:04.839Z,6.15
2023-05-24T14:01:32.648Z,5.40
2023-05-24T14:04:01.653Z,5.57
2023-05-24T14:06:29.374Z,5.00
2023-05-24T14:08:56.116Z,5.10
2023-05-24T14:11:22.986Z,5.57
2023-05-24T14:16:20.694Z,4.95
2023-05-24T14:18:49.368Z,4.55
2023-05-24T14:21:16.520Z,4.80
2023-05-24T14:23:43.259Z,4.63
2023-05-24T14:26:09.944Z,4.28
2023-05-24T14:28:36.658Z,4.00
2023-05-24T14:31:03.518Z,3.90
2023-05-24T14:33:30.329Z,3.80
2023-05-24T14:35:58.330Z,3.90
2023-05-24T14:38:25.729Z,3.30
2023-05-24T14:40:52.446Z,4.43
2023-05-24T14:43:19.147Z,3.60
2023-05-24T14:45:46.042Z,4.03
2023-05-24T14:48:13.355Z,3.72
2023-05-24T14:50:41.442Z,3.95
2023-05-24T14:53:15.193Z,3.70
2023-05-24T14:55:43.980Z,3.95
2023-05-24T14:58:12.282Z,4.38
2023-05-24T15:00:45.688Z,3.80
2023-05-24T15:03:14.753Z,4.53
2023-05-24T15:05:43.152Z,3.47
2023-05-24T15:08:14.085Z,4.35
2023-05-24T15:10:41.311Z,4.20
2023-05-24T15:13:09.896Z,4.20
2023-05-24T15:15:36.616Z,4.20
2023-05-24T15:18:03.399Z,4.00
2023-05-24T15:20:30.295Z,3.85
2023-05-24T15:22:57.116Z,3.88
2023-05-24T15:25:23.791Z,4.15
2023-05-24T15:27:52.191Z,4.13
2023-05-24T15:30:20.082Z,3.95
2023-05-24T15:32:49.230Z,3.47
2023-05-24T15:35:17.416Z,4.72
2023-05-24T15:37:44.070Z,4.55
2023-05-24T15:40:11.721Z,4.13
2023-05-24T15:42:38.698Z,5.75
2023-05-24T15:45:06.018Z,3.97
2023-05-24T15:47:38.154Z,4.30
2023-05-24T15:50:06.376Z,3.80
2023-05-24T15:52:35.172Z,3.72
2023-05-24T15:55:02.059Z,4.50
2023-05-24T15:57:28.723Z,3.60
2023-05-24T15:59:55.544Z,4.95
2023-05-24T16:02:22.634Z,4.85
2023-05-24T16:04:50.007Z,4.25
2023-05-24T16:07:18.317Z,4.85
2023-05-24T16:09:46.944Z,3.60
2023-05-24T16:12:13.719Z,3.83
2023-05-24T16:14:40.320Z,4.30
2023-05-24T16:17:07.776Z,4.00
2023-05-24T16:19:36.364Z,4.30
2023-05-24T16:22:03.291Z,4.20
2023-05-24T16:24:30.626Z,4.78
2023-05-24T16:26:58.689Z,3.42
2023-05-24T16:29:27.925Z,4.07
2023-05-24T16:31:54.656Z,4.57
2023-05-24T16:34:23.875Z,4.25
2023-05-24T16:36:50.565Z,3.35
2023-05-24T16:39:17.403Z,4.30
2023-05-24T16:41:44.291Z,4.40
2023-05-24T16:44:17.585Z,4.85
2023-05-24T16:46:45.807Z,4.28
2023-05-24T16:49:13.030Z,4.57
2023-05-24T16:51:39.958Z,4.55
2023-05-24T16:54:09.517Z,4.20
2023-05-24T16:56:37.991Z,4.80
2023-05-24T16:59:05.607Z,4.95
2023-05-24T17:01:34.709Z,4.53
2023-05-24T17:04:01.742Z,5.00
2023-05-24T17:06:28.561Z,4.32
2023-05-24T17:08:55.171Z,4.28
2023-05-24T17:11:23.342Z,4.22
2023-05-24T17:13:52.427Z,4.15
2023-05-24T17:16:20.789Z,4.10
2023-05-24T17:18:55.315Z,3.83
2023-05-24T17:21:29.021Z,3.97
2023-05-24T17:23:57.255Z,3.65
2023-05-24T17:29:05.420Z,4.20
2023-05-24T17:33:59.988Z,4.20
2023-05-24T17:36:26.570Z,4.00
2023-05-24T17:41:19.613Z,4.32
2023-05-24T17:48:40.966Z,4.28
2023-05-24T17:51:08.913Z,3.90
2023-05-24T17:53:37.103Z,4.57
2023-05-24T17:56:05.394Z,5.05
2023-05-24T17:58:36.316Z,3.92
2023-05-24T18:01:08.976Z,3.33
2023-05-24T18:03:39.266Z,3.47
2023-05-24T18:06:07.599Z,3.40
2023-05-24T18:08:39.091Z,3.45
2023-05-24T18:11:08.749Z,3.35
2023-05-24T18:13:36.639Z,3.83
2023-05-24T18:16:03.448Z,4.15
2023-05-24T18:18:30.414Z,3.60
2023-05-24T18:20:57.038Z,3.78
2023-05-24T18:23:23.609Z,4.00
2023-05-24T18:28:27.068Z,4.15
2023-05-24T18:33:20.272Z,3.28
2023-05-24T18:38:13.349Z,4.65
2023-05-24T18:40:39.914Z,3.78
2023-05-24T18:45:32.979Z,3.95
2023-05-24T18:48:01.312Z,3.90
2023-05-24T18:50:27.953Z,3.38
2023-05-24T18:55:21.045Z,3.65
2023-05-24T19:00:14.701Z,3.33
2023-05-24T19:02:41.502Z,3.97
2023-05-24T19:05:08.615Z,4.13
2023-05-24T19:07:36.016Z,3.30
2023-05-24T19:10:03.302Z,3.88
2023-05-24T19:12:30.390Z,4.10
2023-05-24T19:14:57.178Z,4.13
2023-05-24T19:17:25.074Z,4.47
2023-05-24T19:19:52.056Z,4.45
2023-05-24T19:22:18.776Z,3.80
2023-05-24T19:27:11.899Z,4.20
2023-05-24T19:29:40.017Z,3.42
2023-05-24T19:32:11.764Z,4.72
2023-05-24T19:34:42.342Z,4.18
2023-05-24T19:37:09.794Z,4.28
2023-05-24T19:39:37.336Z,4.70
2023-05-24T19:42:04.514Z,4.68
2023-05-24T19:44:31.233Z,4.63
2023-05-24T19:49:24.488Z,5.95
2023-05-24T19:54:17.627Z,5.32
2023-05-24T19:56:44.200Z,5.10
2023-05-24T19:59:10.781Z,5.40
2023-05-24T20:01:37.367Z,5.57
2023-05-24T20:06:31.564Z,5.43
2023-05-24T20:08:59.732Z,5.50
2023-05-24T20:11:26.767Z,5.68
2023-05-24T20:13:53.476Z,6.13
2023-05-24T20:18:46.721Z,5.68
2023-05-24T20:23:39.945Z,6.97
2023-05-24T20:26:06.548Z,5.60
2023-05-24T20:28:33.140Z,5.13
2023-05-24T20:30:59.878Z,6.28
2023-05-24T20:35:56.027Z,6.70
2023-05-24T20:38:23.445Z,7.00
2023-05-24T20:40:50.000Z,5.55
2023-05-24T20:43:16.593Z,6.50
2023-05-24T20:45:43.390Z,5.22
2023-05-24T20:48:10.145Z,6.68
2023-05-24T20:53:03.776Z,6.10
2023-05-24T20:55:31.283Z,5.78
2023-05-24T20:57:57.847Z,5.57
2023-05-24T21:00:24.401Z,5.40
2023-05-24T21:02:51.491Z,6.60
2023-05-24T21:05:18.219Z,6.22
2023-05-24T21:07:44.807Z,5.70
2023-05-24T21:10:18.546Z,5.43
2023-05-24T21:12:45.154Z,5.70
2023-05-24T21:15:11.931Z,5.32
2023-05-24T21:20:06.312Z,5.65
2023-05-24T21:22:32.918Z,5.70
2023-05-24T21:24:59.529Z,5.32
2023-05-24T21:27:27.551Z,5.55
2023-05-24T21:29:54.253Z,5.50
2023-05-24T21:32:20.944Z,5.35
2023-05-24T21:34:47.548Z,6.15
2023-05-24T21:37:14.114Z,5.25
2023-05-24T21:39:41.029Z,5.80
2023-05-24T21:42:07.611Z,5.47
2023-05-24T21:44:34.166Z,5.45
2023-05-24T21:47:00.937Z,5.95
2023-05-24T21:51:54.295Z,6.65
2023-05-24T21:54:21.009Z,5.22
2023-05-24T21:56:47.600Z,5.10
2023-05-24T21:59:14.995Z,6.20
2023-05-24T22:01:42.035Z,5.80
2023-05-24T22:04:09.755Z,5.57
2023-05-24T22:06:36.602Z,5.80
2023-05-24T22:11:29.731Z,7.13
2023-05-24T22:13:56.744Z,5.13
2023-05-24T22:16:24.116Z,6.60
2023-05-24T22:18:55.595Z,5.80
2023-05-24T22:21:22.849Z,5.97
2023-05-24T22:23:51.593Z,6.00
2023-05-24T22:26:18.185Z,6.13
2023-05-24T22:28:55.502Z,5.82
2023-05-24T22:31:24.128Z,6.63
2023-05-24T22:33:51.265Z,5.55
2023-05-24T22:36:18.850Z,6.00
2023-05-24T22:38:45.509Z,6.10
2023-05-24T22:41:12.181Z,5.80
2023-05-24T22:43:38.736Z,6.63
2023-05-24T22:46:06.674Z,5.97
2023-05-24T22:48:35.074Z,7.72
2023-05-24T22:51:01.812Z,5.97
2023-05-24T22:53:28.854Z,5.60
2023-05-24T22:55:55.435Z,6.25
2023-05-24T22:58:23.732Z,5.45
2023-05-24T23:00:51.429Z,6.05
2023-05-24T23:03:18.375Z,5.30
2023-05-24T23:08:15.383Z,5.47
2023-05-24T23:10:48.212Z,5.18
2023-05-24T23:13:16.903Z,6.88
2023-05-24T23:15:43.807Z,5.35
2023-05-24T23:18:16.112Z,5.03
2023-05-24T23:20:44.615Z,5.57
2023-05-24T23:23:11.260Z,4.60
2023-05-24T23:25:37.910Z,5.25
2023-05-24T23:28:05.058Z,4.93
2023-05-24T23:30:31.735Z,5.43
2023-05-24T23:32:59.543Z,5.40
2023-05-24T23:35:26.227Z,5.22
2023-05-24T23:37:53.877Z,5.93
2023-05-24T23:40:20.956Z,4.93
2023-05-24T23:42:47.525Z,4.90
2023-05-24T23:45:15.831Z,5.32
2023-05-24T23:47:43.639Z,6.68
2023-05-24T23:50:10.977Z,5.38
2023-05-24T23:52:37.978Z,5.47
2023-05-24T23:57:37.068Z,5.53
